sensor_id;sensor_type;location;lat;lon;timestamp;pressure;altitude;pressure_sealevel;temperature;humidity
32452;BME280;45528;52.102;5.242;2022-09-04T00:00:54;100996.0;;;24.33;45.85
32452;BME280;45528;52.102;5.242;2022-09-04T00:02:45;100998.0;;;24.26;46.01
32452;BME280;45528;52.102;5.242;2022-09-04T00:04:37;100997.0;;;24.24;46.06
32452;BME280;45528;52.102;5.242;2022-09-04T00:06:23;101003.0;;;24.24;45.81
32452;BME280;45528;52.102;5.242;2022-09-04T00:08:17;101008.0;;;24.23;45.87
32452;BME280;45528;52.102;5.242;2022-09-04T00:10:09;101002.0;;;24.26;45.88
32452;BME280;45528;52.102;5.242;2022-09-04T00:13:41;101006.0;;;24.23;46.15
32452;BME280;45528;52.102;5.242;2022-09-04T00:15:25;101009.0;;;24.15;46.45
32452;BME280;45528;52.102;5.242;2022-09-04T00:17:05;101009.0;;;24.16;46.56
32452;BME280;45528;52.102;5.242;2022-09-04T00:18:51;101018.0;;;24.15;46.47
32452;BME280;45528;52.102;5.242;2022-09-04T00:20:37;101020.0;;;24.06;46.71
32452;BME280;45528;52.102;5.242;2022-09-04T00:24:07;101020.0;;;24.02;46.98
32452;BME280;45528;52.102;5.242;2022-09-04T00:25:52;101019.0;;;24.01;46.97
32452;BME280;45528;52.102;5.242;2022-09-04T00:27:35;101025.0;;;24.04;46.94
32452;BME280;45528;52.102;5.242;2022-09-04T00:29:20;101027.0;;;24.09;46.66
32452;BME280;45528;52.102;5.242;2022-09-04T00:31:12;101026.0;;;24.08;46.77
32452;BME280;45528;52.102;5.242;2022-09-04T00:33:00;101025.0;;;24.07;46.98
32452;BME280;45528;52.102;5.242;2022-09-04T00:36:35;101030.0;;;24.03;47.2
32452;BME280;45528;52.102;5.242;2022-09-04T00:38:16;101026.0;;;23.96;47.36
32452;BME280;45528;52.102;5.242;2022-09-04T00:40:00;101024.0;;;23.97;47.41
32452;BME280;45528;52.102;5.242;2022-09-04T00:41:50;101023.0;;;24.01;47.3
32452;BME280;45528;52.102;5.242;2022-09-04T00:43:58;101023.0;;;24.07;47.3
32452;BME280;45528;52.102;5.242;2022-09-04T00:47:01;101025.0;;;24.07;47.48
32452;BME280;45528;52.102;5.242;2022-09-04T00:50:09;101037.0;;;24.05;47.39
32452;BME280;45528;52.102;5.242;2022-09-04T00:52:05;101038.0;;;24.08;47.56
32452;BME280;45528;52.102;5.242;2022-09-04T00:54:00;101039.0;;;24.03;47.88
32452;BME280;45528;52.102;5.242;2022-09-04T00:56:33;101039.0;;;24.01;48.31
32452;BME280;45528;52.102;5.242;2022-09-04T01:00:05;101042.0;;;23.96;48.38
32452;BME280;45528;52.102;5.242;2022-09-04T01:01:43;101034.0;;;23.95;48.48
32452;BME280;45528;52.102;5.242;2022-09-04T01:03:31;101040.0;;;24.0;48.7
32452;BME280;45528;52.102;5.242;2022-09-04T01:05:36;101039.0;;;24.03;48.61
32452;BME280;45528;52.102;5.242;2022-09-04T01:07:33;101039.0;;;24.02;48.8
32452;BME280;45528;52.102;5.242;2022-09-04T01:09:36;101035.0;;;24.1;48.97
32452;BME280;45528;52.102;5.242;2022-09-04T01:11:47;101039.0;;;24.08;49.0
32452;BME280;45528;52.102;5.242;2022-09-04T01:13:38;101049.0;;;24.05;49.04
32452;BME280;45528;52.102;5.242;2022-09-04T01:15:19;101053.0;;;24.06;49.2
32452;BME280;45528;52.102;5.242;2022-09-04T01:17:08;101056.0;;;24.07;49.29
32452;BME280;45528;52.102;5.242;2022-09-04T01:21:03;101055.0;;;24.13;49.1
32452;BME280;45528;52.102;5.242;2022-09-04T01:22:53;101052.0;;;24.27;48.89
32452;BME280;45528;52.102;5.242;2022-09-04T01:24:50;101057.0;;;24.19;49.32
32452;BME280;45528;52.102;5.242;2022-09-04T01:26:43;101063.0;;;24.18;49.48
32452;BME280;45528;52.102;5.242;2022-09-04T01:28:26;101062.0;;;24.15;49.55
32452;BME280;45528;52.102;5.242;2022-09-04T01:30:08;101064.0;;;24.09;49.79
32452;BME280;45528;52.102;5.242;2022-09-04T01:31:51;101063.0;;;24.07;50.09
32452;BME280;45528;52.102;5.242;2022-09-04T01:33:48;101061.0;;;24.05;50.19
32452;BME280;45528;52.102;5.242;2022-09-04T01:37:27;101053.0;;;24.07;50.03
32452;BME280;45528;52.102;5.242;2022-09-04T01:39:17;101058.0;;;24.08;50.33
32452;BME280;45528;52.102;5.242;2022-09-04T01:41:04;101056.0;;;23.98;50.35
32452;BME280;45528;52.102;5.242;2022-09-04T01:42:46;101057.0;;;23.9;50.49
32452;BME280;45528;52.102;5.242;2022-09-04T01:44:26;101059.0;;;23.89;50.58
32452;BME280;45528;52.102;5.242;2022-09-04T01:48:11;101060.0;;;23.94;50.72
32452;BME280;45528;52.102;5.242;2022-09-04T01:49:56;101068.0;;;23.89;50.71
32452;BME280;45528;52.102;5.242;2022-09-04T01:51:39;101066.0;;;23.91;51.04
32452;BME280;45528;52.102;5.242;2022-09-04T01:53:24;101065.0;;;23.92;51.36
32452;BME280;45528;52.102;5.242;2022-09-04T01:55:11;101065.0;;;23.94;51.26
32452;BME280;45528;52.102;5.242;2022-09-04T01:56:56;101071.0;;;24.01;51.12
32452;BME280;45528;52.102;5.242;2022-09-04T01:58:46;101072.0;;;23.97;51.06
32452;BME280;45528;52.102;5.242;2022-09-04T02:02:13;101074.0;;;23.98;50.93
32452;BME280;45528;52.102;5.242;2022-09-04T02:03:59;101076.0;;;24.02;50.76
32452;BME280;45528;52.102;5.242;2022-09-04T02:05:58;101081.0;;;23.99;50.97
32452;BME280;45528;52.102;5.242;2022-09-04T02:07:42;101087.0;;;23.88;51.19
32452;BME280;45528;52.102;5.242;2022-09-04T02:09:31;101083.0;;;23.86;51.23
32452;BME280;45528;52.102;5.242;2022-09-04T02:11:14;101081.0;;;23.87;51.34
32452;BME280;45528;52.102;5.242;2022-09-04T02:14:49;101080.0;;;23.83;51.46
32452;BME280;45528;52.102;5.242;2022-09-04T02:16:39;101085.0;;;23.76;51.44
32452;BME280;45528;52.102;5.242;2022-09-04T02:18:31;101098.0;;;23.67;51.54
32452;BME280;45528;52.102;5.242;2022-09-04T02:20:20;101091.0;;;23.64;51.8
32452;BME280;45528;52.102;5.242;2022-09-04T02:22:06;101093.0;;;23.65;51.8
32452;BME280;45528;52.102;5.242;2022-09-04T02:23:57;101099.0;;;23.63;51.88
32452;BME280;45528;52.102;5.242;2022-09-04T02:27:28;101099.0;;;23.56;51.96
32452;BME280;45528;52.102;5.242;2022-09-04T02:29:27;101102.0;;;23.52;52.08
32452;BME280;45528;52.102;5.242;2022-09-04T02:31:13;101097.0;;;23.51;52.26
32452;BME280;45528;52.102;5.242;2022-09-04T02:32:59;101097.0;;;23.52;52.28
32452;BME280;45528;52.102;5.242;2022-09-04T02:34:44;101093.0;;;23.56;52.22
32452;BME280;45528;52.102;5.242;2022-09-04T02:36:29;101096.0;;;23.51;52.42
32452;BME280;45528;52.102;5.242;2022-09-04T02:40:10;101103.0;;;23.4;52.71
32452;BME280;45528;52.102;5.242;2022-09-04T02:41:58;101106.0;;;23.42;52.58
32452;BME280;45528;52.102;5.242;2022-09-04T02:43:49;101107.0;;;23.45;52.44
32452;BME280;45528;52.102;5.242;2022-09-04T02:45:41;101105.0;;;23.49;52.38
32452;BME280;45528;52.102;5.242;2022-09-04T02:47:23;101113.0;;;23.45;52.5
32452;BME280;45528;52.102;5.242;2022-09-04T02:49:11;101119.0;;;23.49;52.4
32452;BME280;45528;52.102;5.242;2022-09-04T02:53:09;101120.0;;;23.45;52.64
32452;BME280;45528;52.102;5.242;2022-09-04T02:57:06;101122.0;;;23.5;52.48
32452;BME280;45528;52.102;5.242;2022-09-04T02:58:59;101118.0;;;23.49;52.5
32452;BME280;45528;52.102;5.242;2022-09-04T03:00:46;101124.0;;;23.45;52.6
32452;BME280;45528;52.102;5.242;2022-09-04T03:02:36;101119.0;;;23.45;52.58
32452;BME280;45528;52.102;5.242;2022-09-04T03:04:20;101120.0;;;23.46;52.74
32452;BME280;45528;52.102;5.242;2022-09-04T03:06:05;101119.0;;;23.34;52.99
32452;BME280;45528;52.102;5.242;2022-09-04T03:07:51;101118.0;;;23.29;53.31
32452;BME280;45528;52.102;5.242;2022-09-04T03:11:25;101115.0;;;23.26;53.48
32452;BME280;45528;52.102;5.242;2022-09-04T03:13:09;101120.0;;;23.26;53.44
32452;BME280;45528;52.102;5.242;2022-09-04T03:14:59;101122.0;;;23.26;53.48
32452;BME280;45528;52.102;5.242;2022-09-04T03:16:41;101118.0;;;23.24;53.51
32452;BME280;45528;52.102;5.242;2022-09-04T03:18:24;101117.0;;;23.22;53.65
32452;BME280;45528;52.102;5.242;2022-09-04T03:21:54;101118.0;;;23.16;54.03
32452;BME280;45528;52.102;5.242;2022-09-04T03:23:38;101120.0;;;23.14;54.17
32452;BME280;45528;52.102;5.242;2022-09-04T03:25:47;101124.0;;;23.13;54.15
32452;BME280;45528;52.102;5.242;2022-09-04T03:28:02;101127.0;;;23.16;54.19
32452;BME280;45528;52.102;5.242;2022-09-04T03:29:46;101125.0;;;23.22;54.13
32452;BME280;45528;52.102;5.242;2022-09-04T03:31:28;101126.0;;;23.23;54.09
32452;BME280;45528;52.102;5.242;2022-09-04T03:33:15;101128.0;;;23.22;54.13
32452;BME280;45528;52.102;5.242;2022-09-04T03:35:02;101122.0;;;23.23;54.4
32452;BME280;45528;52.102;5.242;2022-09-04T03:38:44;101125.0;;;23.12;54.65
32452;BME280;45528;52.102;5.242;2022-09-04T03:40:34;101125.0;;;23.1;54.76
32452;BME280;45528;52.102;5.242;2022-09-04T03:42:21;101127.0;;;23.1;54.91
32452;BME280;45528;52.102;5.242;2022-09-04T03:44:17;101125.0;;;23.09;54.86
32452;BME280;45528;52.102;5.242;2022-09-04T03:46:12;101127.0;;;23.11;55.09
32452;BME280;45528;52.102;5.242;2022-09-04T03:48:07;101124.0;;;23.15;54.92
32452;BME280;45528;52.102;5.242;2022-09-04T03:49:53;101126.0;;;23.09;55.03
32452;BME280;45528;52.102;5.242;2022-09-04T03:51:42;101133.0;;;23.06;55.14
32452;BME280;45528;52.102;5.242;2022-09-04T03:55:31;101135.0;;;22.99;55.49
32452;BME280;45528;52.102;5.242;2022-09-04T03:58:58;101138.0;;;23.11;55.56
32452;BME280;45528;52.102;5.242;2022-09-04T04:00:45;101141.0;;;23.12;55.57
32452;BME280;45528;52.102;5.242;2022-09-04T04:02:36;101144.0;;;23.13;55.64
32452;BME280;45528;52.102;5.242;2022-09-04T04:05:02;101146.0;;;23.16;55.53
32452;BME280;45528;52.102;5.242;2022-09-04T04:08:10;101148.0;;;23.23;55.46
32452;BME280;45528;52.102;5.242;2022-09-04T04:11:48;101157.0;;;23.28;55.34
32452;BME280;45528;52.102;5.242;2022-09-04T04:13:40;101164.0;;;23.31;55.25
32452;BME280;45528;52.102;5.242;2022-09-04T04:15:39;101161.0;;;23.31;55.25
32452;BME280;45528;52.102;5.242;2022-09-04T04:17:32;101162.0;;;23.29;55.35
32452;BME280;45528;52.102;5.242;2022-09-04T04:19:27;101165.0;;;23.29;55.49
32452;BME280;45528;52.102;5.242;2022-09-04T04:21:21;101167.0;;;23.26;55.62
32452;BME280;45528;52.102;5.242;2022-09-04T04:23:17;101168.0;;;23.25;55.77
32452;BME280;45528;52.102;5.242;2022-09-04T04:27:08;101167.0;;;23.2;55.87
32452;BME280;45528;52.102;5.242;2022-09-04T04:29:20;101167.0;;;23.18;55.84
32452;BME280;45528;52.102;5.242;2022-09-04T04:31:05;101176.0;;;23.16;56.08
32452;BME280;45528;52.102;5.242;2022-09-04T04:33:37;101177.0;;;23.15;56.06
32452;BME280;45528;52.102;5.242;2022-09-04T04:35:23;101175.0;;;23.2;55.93
32452;BME280;45528;52.102;5.242;2022-09-04T04:37:10;101176.0;;;23.16;56.29
32452;BME280;45528;52.102;5.242;2022-09-04T04:38:57;101184.0;;;23.1;56.41
32452;BME280;45528;52.102;5.242;2022-09-04T04:40:59;101181.0;;;23.14;56.37
32452;BME280;45528;52.102;5.242;2022-09-04T04:42:59;101182.0;;;23.13;56.39
32452;BME280;45528;52.102;5.242;2022-09-04T04:49:49;101181.0;;;23.14;56.57
32452;BME280;45528;52.102;5.242;2022-09-04T04:51:48;101182.0;;;23.14;56.72
32452;BME280;45528;52.102;5.242;2022-09-04T04:53:45;101182.0;;;23.15;56.62
32452;BME280;45528;52.102;5.242;2022-09-04T04:55:33;101188.0;;;23.09;56.68
32452;BME280;45528;52.102;5.242;2022-09-04T04:57:22;101189.0;;;23.11;56.69
32452;BME280;45528;52.102;5.242;2022-09-04T04:59:14;101188.0;;;23.1;56.71
32452;BME280;45528;52.102;5.242;2022-09-04T05:01:02;101188.0;;;23.12;56.64
32452;BME280;45528;52.102;5.242;2022-09-04T05:04:41;101194.0;;;23.1;56.87
32452;BME280;45528;52.102;5.242;2022-09-04T05:06:27;101198.0;;;23.1;56.73
32452;BME280;45528;52.102;5.242;2022-09-04T05:08:15;101196.0;;;23.11;56.95
32452;BME280;45528;52.102;5.242;2022-09-04T05:10:00;101202.0;;;23.18;56.78
32452;BME280;45528;52.102;5.242;2022-09-04T05:11:52;101203.0;;;23.15;56.83
32452;BME280;45528;52.102;5.242;2022-09-04T05:13:36;101202.0;;;23.11;56.97
32452;BME280;45528;52.102;5.242;2022-09-04T05:15:25;101206.0;;;23.1;56.94
32452;BME280;45528;52.102;5.242;2022-09-04T05:19:01;101206.0;;;23.13;56.93
32452;BME280;45528;52.102;5.242;2022-09-04T05:20:47;101210.0;;;23.14;56.97
32452;BME280;45528;52.102;5.242;2022-09-04T05:22:34;101216.0;;;23.07;57.17
32452;BME280;45528;52.102;5.242;2022-09-04T05:24:18;101216.0;;;23.12;57.11
32452;BME280;45528;52.102;5.242;2022-09-04T05:26:06;101218.0;;;23.1;57.28
32452;BME280;45528;52.102;5.242;2022-09-04T05:29:44;101221.0;;;23.1;57.42
32452;BME280;45528;52.102;5.242;2022-09-04T05:31:32;101224.0;;;23.09;57.54
32452;BME280;45528;52.102;5.242;2022-09-04T05:33:17;101226.0;;;23.12;57.31
32452;BME280;45528;52.102;5.242;2022-09-04T05:35:08;101234.0;;;23.12;57.4
32452;BME280;45528;52.102;5.242;2022-09-04T05:37:00;101240.0;;;23.16;57.35
32452;BME280;45528;52.102;5.242;2022-09-04T05:38:49;101239.0;;;23.23;57.12
32452;BME280;45528;52.102;5.242;2022-09-04T05:40:51;101241.0;;;23.22;57.37
32452;BME280;45528;52.102;5.242;2022-09-04T05:42:42;101239.0;;;23.28;57.18
32452;BME280;45528;52.102;5.242;2022-09-04T05:46:33;101239.0;;;23.31;57.06
32452;BME280;45528;52.102;5.242;2022-09-04T05:48:23;101242.0;;;23.29;57.28
32452;BME280;45528;52.102;5.242;2022-09-04T05:50:16;101247.0;;;23.32;57.19
32452;BME280;45528;52.102;5.242;2022-09-04T05:53:21;101250.0;;;23.37;57.24
32452;BME280;45528;52.102;5.242;2022-09-04T05:57:04;101250.0;;;23.35;57.43
32452;BME280;45528;52.102;5.242;2022-09-04T05:58:57;101252.0;;;23.37;57.41
32452;BME280;45528;52.102;5.242;2022-09-04T06:00:53;101257.0;;;23.41;57.36
32452;BME280;45528;52.102;5.242;2022-09-04T06:06:32;101266.0;;;23.57;57.11
32452;BME280;45528;52.102;5.242;2022-09-04T06:08:25;101265.0;;;23.64;56.91
32452;BME280;45528;52.102;5.242;2022-09-04T06:10:13;101271.0;;;23.68;56.45
32452;BME280;45528;52.102;5.242;2022-09-04T06:13:53;101274.0;;;23.77;56.51
32452;BME280;45528;52.102;5.242;2022-09-04T06:15:40;101273.0;;;23.85;56.42
32452;BME280;45528;52.102;5.242;2022-09-04T06:17:35;101274.0;;;23.92;56.28
32452;BME280;45528;52.102;5.242;2022-09-04T06:19:36;101276.0;;;23.91;56.38
32452;BME280;45528;52.102;5.242;2022-09-04T06:22:25;101278.0;;;23.92;56.34
32452;BME280;45528;52.102;5.242;2022-09-04T06:25:13;101285.0;;;24.02;56.19
32452;BME280;45528;52.102;5.242;2022-09-04T06:29:44;101283.0;;;24.15;55.88
32452;BME280;45528;52.102;5.242;2022-09-04T06:32:01;101283.0;;;24.22;55.81
32452;BME280;45528;52.102;5.242;2022-09-04T06:34:15;101288.0;;;24.22;55.97
32452;BME280;45528;52.102;5.242;2022-09-04T06:36:14;101290.0;;;24.32;55.67
32452;BME280;45528;52.102;5.242;2022-09-04T06:38:56;101288.0;;;24.35;55.16
32452;BME280;45528;52.102;5.242;2022-09-04T06:40:52;101294.0;;;24.42;55.55
32452;BME280;45528;52.102;5.242;2022-09-04T06:42:43;101291.0;;;24.42;55.17
32452;BME280;45528;52.102;5.242;2022-09-04T06:44:37;101296.0;;;24.5;55.46
32452;BME280;45528;52.102;5.242;2022-09-04T06:46:25;101298.0;;;24.58;55.47
32452;BME280;45528;52.102;5.242;2022-09-04T06:48:14;101298.0;;;24.69;53.33
32452;BME280;45528;52.102;5.242;2022-09-04T06:50:05;101299.0;;;24.76;54.98
32452;BME280;45528;52.102;5.242;2022-09-04T06:52:00;101302.0;;;24.9;54.96
32452;BME280;45528;52.102;5.242;2022-09-04T06:53:49;101305.0;;;25.01;54.82
32452;BME280;45528;52.102;5.242;2022-09-04T06:57:35;101302.0;;;25.07;54.63
32452;BME280;45528;52.102;5.242;2022-09-04T06:59:37;101305.0;;;25.2;54.29
32452;BME280;45528;52.102;5.242;2022-09-04T07:01:47;101306.0;;;25.27;54.14
32452;BME280;45528;52.102;5.242;2022-09-04T07:03:40;101305.0;;;25.4;53.83
32452;BME280;45528;52.102;5.242;2022-09-04T07:05:28;101306.0;;;25.46;53.25
32452;BME280;45528;52.102;5.242;2022-09-04T07:07:14;101305.0;;;25.5;53.39
32452;BME280;45528;52.102;5.242;2022-09-04T07:09:03;101306.0;;;25.57;53.59
32452;BME280;45528;52.102;5.242;2022-09-04T07:10:51;101310.0;;;25.69;53.33
32452;BME280;45528;52.102;5.242;2022-09-04T07:12:51;101310.0;;;25.8;53.25
32452;BME280;45528;52.102;5.242;2022-09-04T07:15:32;101309.0;;;25.96;53.04
32452;BME280;45528;52.102;5.242;2022-09-04T07:16:28;101309.0;;;25.96;53.04
32452;BME280;45528;52.102;5.242;2022-09-04T07:18:20;101308.0;;;26.11;52.76
32452;BME280;45528;52.102;5.242;2022-09-04T07:20:11;101310.0;;;26.2;51.26
32452;BME280;45528;52.102;5.242;2022-09-04T07:22:00;101314.0;;;26.29;51.99
32452;BME280;45528;52.102;5.242;2022-09-04T07:23:52;101315.0;;;26.42;51.94
32452;BME280;45528;52.102;5.242;2022-09-04T07:25:42;101321.0;;;26.54;51.41
32452;BME280;45528;52.102;5.242;2022-09-04T07:27:29;101318.0;;;26.55;51.42
32452;BME280;45528;52.102;5.242;2022-09-04T07:31:12;101320.0;;;26.65;51.49
32452;BME280;45528;52.102;5.242;2022-09-04T07:32:57;101320.0;;;26.74;51.39
32452;BME280;45528;52.102;5.242;2022-09-04T07:34:42;101321.0;;;26.78;51.21
32452;BME280;45528;52.102;5.242;2022-09-04T07:36:30;101324.0;;;27.01;50.24
32452;BME280;45528;52.102;5.242;2022-09-04T07:38:18;101322.0;;;27.15;50.36
32452;BME280;45528;52.102;5.242;2022-09-04T07:40:07;101327.0;;;27.27;50.23
32452;BME280;45528;52.102;5.242;2022-09-04T07:41:51;101325.0;;;27.32;49.98
32452;BME280;45528;52.102;5.242;2022-09-04T07:45:27;101330.0;;;27.29;50.24
32452;BME280;45528;52.102;5.242;2022-09-04T07:47:16;101331.0;;;27.47;49.86
32452;BME280;45528;52.102;5.242;2022-09-04T07:49:00;101330.0;;;27.51;49.53
32452;BME280;45528;52.102;5.242;2022-09-04T07:50:51;101334.0;;;27.54;50.07
32452;BME280;45528;52.102;5.242;2022-09-04T07:52:50;101339.0;;;27.64;49.76
32452;BME280;45528;52.102;5.242;2022-09-04T07:55:31;101342.0;;;27.83;49.4
32452;BME280;45528;52.102;5.242;2022-09-04T07:57:23;101346.0;;;27.98;49.05
32452;BME280;45528;52.102;5.242;2022-09-04T07:59:30;101349.0;;;28.08;48.9
32452;BME280;45528;52.102;5.242;2022-09-04T08:01:51;101352.0;;;28.15;48.83
32452;BME280;45528;52.102;5.242;2022-09-04T08:03:46;101351.0;;;28.35;48.1
32452;BME280;45528;52.102;5.242;2022-09-04T08:05:30;101355.0;;;28.4;48.21
32452;BME280;45528;52.102;5.242;2022-09-04T08:07:16;101353.0;;;28.48;47.75
32452;BME280;45528;52.102;5.242;2022-09-04T08:09:10;101358.0;;;28.46;48.05
32452;BME280;45528;52.102;5.242;2022-09-04T08:13:14;101358.0;;;28.44;48.02
32452;BME280;45528;52.102;5.242;2022-09-04T08:15:09;101357.0;;;28.5;47.9
32452;BME280;45528;52.102;5.242;2022-09-04T08:17:01;101361.0;;;28.49;48.13
32452;BME280;45528;52.102;5.242;2022-09-04T08:18:54;101364.0;;;28.55;48.07
32452;BME280;45528;52.102;5.242;2022-09-04T08:20:54;101365.0;;;28.68;48.17
32452;BME280;45528;52.102;5.242;2022-09-04T08:22:46;101372.0;;;28.96;47.3
32452;BME280;45528;52.102;5.242;2022-09-04T08:24:57;101372.0;;;29.04;47.15
32452;BME280;45528;52.102;5.242;2022-09-04T08:27:03;101375.0;;;29.09;46.74
32452;BME280;45528;52.102;5.242;2022-09-04T08:28:55;101376.0;;;29.21;46.93
32452;BME280;45528;52.102;5.242;2022-09-04T08:30:41;101378.0;;;29.4;46.59
32452;BME280;45528;52.102;5.242;2022-09-04T08:32:37;101380.0;;;29.44;46.26
32452;BME280;45528;52.102;5.242;2022-09-04T08:34:58;101381.0;;;29.61;45.91
32452;BME280;45528;52.102;5.242;2022-09-04T08:37:32;101382.0;;;29.69;45.62
32452;BME280;45528;52.102;5.242;2022-09-04T08:39:21;101384.0;;;29.64;45.61
32452;BME280;45528;52.102;5.242;2022-09-04T08:45:32;101388.0;;;29.99;45.36
32452;BME280;45528;52.102;5.242;2022-09-04T08:48:36;101388.0;;;29.94;45.49
32452;BME280;45528;52.102;5.242;2022-09-04T08:52:34;101392.0;;;30.08;45.37
32452;BME280;45528;52.102;5.242;2022-09-04T08:55:35;101393.0;;;30.31;45.06
32452;BME280;45528;52.102;5.242;2022-09-04T08:58:15;101392.0;;;30.41;44.76
32452;BME280;45528;52.102;5.242;2022-09-04T09:01:51;101394.0;;;30.41;45.22
32452;BME280;45528;52.102;5.242;2022-09-04T09:04:27;101399.0;;;30.55;44.88
32452;BME280;45528;52.102;5.242;2022-09-04T09:06:46;101402.0;;;30.64;44.77
32452;BME280;45528;52.102;5.242;2022-09-04T09:10:07;101405.0;;;30.94;44.01
32452;BME280;45528;52.102;5.242;2022-09-04T09:13:15;101406.0;;;30.95;43.78
32452;BME280;45528;52.102;5.242;2022-09-04T09:16:41;101408.0;;;31.05;43.39
32452;BME280;45528;52.102;5.242;2022-09-04T09:18:33;101408.0;;;30.93;43.87
32452;BME280;45528;52.102;5.242;2022-09-04T09:20:25;101408.0;;;31.05;43.82
32452;BME280;45528;52.102;5.242;2022-09-04T09:25:28;101405.0;;;30.95;43.74
32452;BME280;45528;52.102;5.242;2022-09-04T09:27:29;101409.0;;;30.98;44.0
32452;BME280;45528;52.102;5.242;2022-09-04T09:29:29;101415.0;;;31.1;44.16
32452;BME280;45528;52.102;5.242;2022-09-04T09:31:49;101405.0;;;31.09;43.8
32452;BME280;45528;52.102;5.242;2022-09-04T09:38:47;101411.0;;;31.23;42.94
32452;BME280;45528;52.102;5.242;2022-09-04T09:46:07;101410.0;;;31.53;42.41
32452;BME280;45528;52.102;5.242;2022-09-04T09:48:32;101411.0;;;31.48;41.37
32452;BME280;45528;52.102;5.242;2022-09-04T09:52:22;101405.0;;;31.71;41.55
32452;BME280;45528;52.102;5.242;2022-09-04T09:55:21;101407.0;;;31.84;41.71
32452;BME280;45528;52.102;5.242;2022-09-04T09:57:51;101411.0;;;31.93;40.89
32452;BME280;45528;52.102;5.242;2022-09-04T10:01:17;101410.0;;;31.99;41.04
32452;BME280;45528;52.102;5.242;2022-09-04T10:04:13;101412.0;;;32.12;40.9
32452;BME280;45528;52.102;5.242;2022-09-04T10:06:49;101415.0;;;32.14;40.56
32452;BME280;45528;52.102;5.242;2022-09-04T10:09:46;101418.0;;;32.28;40.46
32452;BME280;45528;52.102;5.242;2022-09-04T10:12:58;101414.0;;;32.28;40.24
32452;BME280;45528;52.102;5.242;2022-09-04T10:19:16;101410.0;;;32.61;39.99
32452;BME280;45528;52.102;5.242;2022-09-04T10:22:26;101414.0;;;32.69;39.71
32452;BME280;45528;52.102;5.242;2022-09-04T10:25:08;101417.0;;;32.72;39.87
32452;BME280;45528;52.102;5.242;2022-09-04T10:32:38;101415.0;;;32.9;40.03
32452;BME280;45528;52.102;5.242;2022-09-04T10:34:37;101416.0;;;32.8;39.06
32452;BME280;45528;52.102;5.242;2022-09-04T10:36:25;101425.0;;;32.79;38.92
32452;BME280;45528;52.102;5.242;2022-09-04T10:38:52;101423.0;;;32.74;38.62
32452;BME280;45528;52.102;5.242;2022-09-04T10:40:46;101423.0;;;32.83;38.56
32452;BME280;45528;52.102;5.242;2022-09-04T10:42:39;101423.0;;;32.85;38.18
32452;BME280;45528;52.102;5.242;2022-09-04T10:44:35;101421.0;;;32.89;37.94
32452;BME280;45528;52.102;5.242;2022-09-04T10:46:50;101425.0;;;32.89;38.15
32452;BME280;45528;52.102;5.242;2022-09-04T10:48:49;101423.0;;;32.83;37.96
32452;BME280;45528;52.102;5.242;2022-09-04T10:51:21;101430.0;;;32.78;38.33
32452;BME280;45528;52.102;5.242;2022-09-04T10:53:20;101425.0;;;32.81;38.17
32452;BME280;45528;52.102;5.242;2022-09-04T10:58:14;101424.0;;;32.82;38.54
32452;BME280;45528;52.102;5.242;2022-09-04T11:00:03;101425.0;;;32.85;38.39
32452;BME280;45528;52.102;5.242;2022-09-04T11:03:04;101431.0;;;33.1;38.33
32452;BME280;45528;52.102;5.242;2022-09-04T11:08:02;101430.0;;;33.17;37.17
32452;BME280;45528;52.102;5.242;2022-09-04T11:11:41;101430.0;;;33.32;37.22
32452;BME280;45528;52.102;5.242;2022-09-04T11:13:56;101430.0;;;33.28;37.53
32452;BME280;45528;52.102;5.242;2022-09-04T11:16:50;101430.0;;;33.35;37.06
32452;BME280;45528;52.102;5.242;2022-09-04T11:22:41;101428.0;;;33.37;37.14
32452;BME280;45528;52.102;5.242;2022-09-04T11:27:02;101425.0;;;33.37;37.57
32452;BME280;45528;52.102;5.242;2022-09-04T11:30:31;101424.0;;;33.42;36.46
32452;BME280;45528;52.102;5.242;2022-09-04T11:32:38;101424.0;;;33.57;36.49
32452;BME280;45528;52.102;5.242;2022-09-04T11:36:07;101421.0;;;33.61;36.21
32452;BME280;45528;52.102;5.242;2022-09-04T11:39:54;101428.0;;;33.49;36.24
32452;BME280;45528;52.102;5.242;2022-09-04T11:43:36;101427.0;;;33.6;35.81
32452;BME280;45528;52.102;5.242;2022-09-04T11:47:10;101424.0;;;33.64;35.96
32452;BME280;45528;52.102;5.242;2022-09-04T11:48:28;101422.0;;;33.68;35.71
32452;BME280;45528;52.102;5.242;2022-09-04T11:49:26;101417.0;;;33.69;35.76
32452;BME280;45528;52.102;5.242;2022-09-04T11:50:34;101417.0;;;33.69;35.76
32452;BME280;45528;52.102;5.242;2022-09-04T11:52:24;101421.0;;;33.87;35.74
32452;BME280;45528;52.102;5.242;2022-09-04T11:54:36;101420.0;;;33.99;35.57
32452;BME280;45528;52.102;5.242;2022-09-04T11:57:09;101420.0;;;33.92;35.35
32452;BME280;45528;52.102;5.242;2022-09-04T11:59:03;101422.0;;;33.8;35.51
32452;BME280;45528;52.102;5.242;2022-09-04T12:01:05;101427.0;;;33.89;34.89
32452;BME280;45528;52.102;5.242;2022-09-04T12:03:39;101424.0;;;34.03;35.56
32452;BME280;45528;52.102;5.242;2022-09-04T12:06:44;101427.0;;;33.74;35.24
32452;BME280;45528;52.102;5.242;2022-09-04T12:08:39;101430.0;;;33.75;35.99
32452;BME280;45528;52.102;5.242;2022-09-04T12:11:16;101430.0;;;33.64;35.49
32452;BME280;45528;52.102;5.242;2022-09-04T12:13:34;101427.0;;;33.65;35.67
32452;BME280;45528;52.102;5.242;2022-09-04T12:15:48;101430.0;;;33.68;35.72
32452;BME280;45528;52.102;5.242;2022-09-04T12:20:18;101430.0;;;33.76;35.49
32452;BME280;45528;52.102;5.242;2022-09-04T12:22:46;101433.0;;;33.75;35.01
32452;BME280;45528;52.102;5.242;2022-09-04T12:25:38;101432.0;;;33.71;35.08
32452;BME280;45528;52.102;5.242;2022-09-04T12:29:04;101435.0;;;33.58;35.0
32452;BME280;45528;52.102;5.242;2022-09-04T12:29:30;101438.0;;;33.46;35.49
32452;BME280;45528;52.102;5.242;2022-09-04T12:30:18;101438.0;;;33.46;35.49
32452;BME280;45528;52.102;5.242;2022-09-04T12:32:11;101433.0;;;33.55;35.35
32452;BME280;45528;52.102;5.242;2022-09-04T12:35:37;101434.0;;;33.72;35.18
32452;BME280;45528;52.102;5.242;2022-09-04T12:42:46;101436.0;;;33.93;35.06